»·PEaware :: AAL1646 KPHX-KLAS

AAL1646 :: KPHX-KLAS

FLIGHT INFORMATION

Flight Status: Arrived
Operator:
American Airlines
More flights by this operator :: More flights under this callsign
Pilot: Brandon G. (13)
Aircraft: AIRBUS A320
(A320)
More flights by this aircraft type
Origin: KPHX Phoenix Sky Harbor Intl
United States
Destination: KLAS McCarran Intl
United States
More flights between these airports :: More routes between these airports
Route: +MAYSA5 SISIE IGM TYSSN5
File this flight plan on PilotEdge
Remarks:
Altitude:
(Current/Filed)
26,000ft
Speed:
(Current/Filed)
425kts
Departed: 27-Aug-17 08:40 PM
Arrived: 27-Aug-17 09:25 PM
Distance/Time
Traveled:
221nm/0:45
Distance/Time
To Go:
Arrived

Flight Plot

Page will automatically refresh every two minutes.

Flight plan parsing failed; only flown route is shown


Map Options




Map Legend


Flown Route
Filed Route
Departure Airport
Arrival Airport
Navaid (VOR, NDB)
Fix

Horizontal Profiles

Position Reports

Time Latitude Longitude Heading Altitude Ground
Speed
27-Aug-17 20:19 33.437427 -111.998748 270 1131ft 0kts
27-Aug-17 20:20 33.437427 -111.998748 270 1131ft 0kts
27-Aug-17 20:21 33.437427 -111.998748 270 1131ft 0kts
27-Aug-17 20:22 33.437427 -111.998748 270 1131ft 0kts
27-Aug-17 20:23 33.437427 -111.998748 270 1131ft 0kts
27-Aug-17 20:24 33.437427 -111.998748 270 1131ft 0kts
27-Aug-17 20:25 33.437427 -111.998748 270 1131ft 0kts
27-Aug-17 20:26 33.437427 -111.998748 270 1131ft 0kts
27-Aug-17 20:27 33.437427 -111.998748 270 1131ft 0kts
27-Aug-17 20:28 33.437427 -111.998748 270 1131ft 0kts
27-Aug-17 20:29 33.437427 -111.998748 270 1131ft 0kts
27-Aug-17 20:30 33.437427 -111.998748 270 1131ft 0kts
27-Aug-17 20:31 33.437427 -111.998748 270 1131ft 0kts
27-Aug-17 20:32 33.437427 -111.998748 270 1131ft 0kts
27-Aug-17 20:33 33.437427 -111.998748 270 1131ft 0kts
27-Aug-17 20:34 33.437427 -111.998748 270 1131ft 0kts
27-Aug-17 20:35 33.437427 -111.998748 270 1131ft 0kts
27-Aug-17 20:36 33.437427 -111.998748 270 1131ft 0kts
27-Aug-17 20:37 33.437427 -111.998748 270 1131ft 0kts
27-Aug-17 20:38 33.437344 -111.997865 297 1132ft 0kts
27-Aug-17 20:39 33.437344 -111.997865 297 1132ft 0kts
27-Aug-17 20:40 33.437344 -111.997867 297 1132ft 0kts
27-Aug-17 20:41 33.437514 -111.998107 317 1132ft 5kts
27-Aug-17 20:42 33.439746 -111.998861 279 1134ft 14kts
27-Aug-17 20:43 33.439776 -112.007303 272 1130ft 35kts
27-Aug-17 20:44 33.439757 -112.022625 269 1119ft 45kts
27-Aug-17 20:45 33.439860 -112.029405 322 1114ft 0kts
27-Aug-17 20:46 33.440886 -112.028742 90 1114ft 30kts
27-Aug-17 20:47 33.440218 -111.986055 91 2085ft 181kts
27-Aug-17 20:48 33.437336 -111.918158 86 4621ft 255kts
27-Aug-17 20:49 33.493815 -111.876126 13 8221ft 280kts
27-Aug-17 20:50 33.570445 -111.857044 13 10584ft 316kts
27-Aug-17 20:51 33.656833 -111.838405 358 13742ft 327kts
27-Aug-17 20:52 33.743517 -111.870726 312 16407ft 355kts
27-Aug-17 20:53 33.803548 -111.966326 308 18932ft 368kts
27-Aug-17 20:54 33.864194 -112.065351 308 21242ft 379kts
27-Aug-17 20:55 33.926670 -112.167994 307 23347ft 389kts
27-Aug-17 20:56 33.990576 -112.273293 307 25237ft 399kts
27-Aug-17 20:57 34.064670 -112.371126 321 25977ft 414kts
27-Aug-17 20:58 34.155969 -112.463951 321 25977ft 464kts
27-Aug-17 20:59 34.254712 -112.563766 321 26261ft 475kts
27-Aug-17 21:00 34.354058 -112.664002 320 26254ft 473kts
27-Aug-17 21:01 34.455136 -112.766403 320 26256ft 478kts
27-Aug-17 21:02 34.556155 -112.868959 320 26258ft 478kts
27-Aug-17 21:03 34.655015 -112.975961 318 26264ft 478kts
27-Aug-17 21:04 34.753327 -113.083517 318 26266ft 478kts
27-Aug-17 21:05 34.851370 -113.191130 318 26267ft 479kts
27-Aug-17 21:06 34.948494 -113.298068 318 26151ft 478kts
27-Aug-17 21:07 35.025788 -113.427049 300 26117ft 478kts
27-Aug-17 21:08 35.090990 -113.566786 300 25821ft 481kts
27-Aug-17 21:09 35.151794 -113.698086 299 24909ft 472kts
27-Aug-17 21:10 35.214857 -113.835093 299 23944ft 459kts
27-Aug-17 21:11 35.288576 -113.958443 323 23002ft 453kts
27-Aug-17 21:12 35.385820 -114.050442 324 21034ft 430kts
27-Aug-17 21:13 35.476577 -114.135057 324 18569ft 405kts
27-Aug-17 21:14 35.564966 -114.217441 325 16440ft 394kts
27-Aug-17 21:15 35.650037 -114.296855 323 14370ft 380kts
27-Aug-17 21:16 35.732407 -114.373940 325 12285ft 369kts
27-Aug-17 21:17 35.827118 -114.422890 340 12013ft 365kts
27-Aug-17 21:18 35.913835 -114.463633 340 10796ft 298kts
27-Aug-17 21:19 35.983282 -114.496184 340 10267ft 252kts
27-Aug-17 21:20 36.038534 -114.540907 284 9910ft 244kts
27-Aug-17 21:21 36.054328 -114.622287 283 8981ft 252kts
27-Aug-17 21:22 36.068952 -114.704181 282 8171ft 249kts
27-Aug-17 21:23 36.073053 -114.786911 270 8098ft 239kts
27-Aug-17 21:24 36.073235 -114.866464 270 8014ft 213kts
27-Aug-17 21:25 36.073391 -114.938176 270 6040ft 209kts
27-Aug-17 21:26 36.076860 -115.005236 269 4135ft 176kts
27-Aug-17 21:27 36.076325 -115.061536 272 3059ft 163kts
27-Aug-17 21:28 36.076402 -115.116506 269 2240ft 163kts
27-Aug-17 21:29 36.077190 -115.146547 347 2103ft 21kts

Navigation Log

Ident Type
Flight plan parsing failed, navigation log unavailable